Time;durP1;ratioP1;P1;durP2;ratioP2;P2;SDS_P1;SDS_P2;PMS_P1;PMS_P2;Temp;Humidity;BMP_temperature;BMP_pressure;BME280_temperature;BME280_humidity;BME280_pressure;Samples;Min_cycle;Max_cycle;Signal;HPM_P1;HPM_P2
2022/11/08 00:01:30;;;;;;;11.80;2.53;;;13.20;99.90;;;;;;4953949;28;48059;-78
2022/11/08 00:03:57;;;;;;;11.40;2.55;;;13.20;99.90;;;;;;4944354;28;36284;-77
2022/11/08 00:14:39;;;;;;;11.43;2.75;;;13.20;99.90;;;;;;4960458;28;50326;-78
2022/11/08 00:17:05;;;;;;;9.32;2.35;;;13.20;99.90;;;;;;4959293;28;41146;-78
2022/11/08 00:19:31;;;;;;;13.20;2.28;;;13.30;99.90;;;;;;4963825;28;39161;-78
2022/11/08 00:21:57;;;;;;;10.48;2.40;;;13.20;99.90;;;;;;4939149;28;36904;-78
2022/11/08 00:24:23;;;;;;;12.18;3.17;;;13.20;99.90;;;;;;4960540;28;35714;-78
2022/11/08 00:26:49;;;;;;;12.63;3.55;;;13.20;99.90;;;;;;4958112;28;39584;-78
2022/11/08 00:29:16;;;;;;;12.40;2.42;;;13.20;99.90;;;;;;4966038;28;38646;-79
2022/11/08 00:31:42;;;;;;;11.65;2.90;;;13.10;99.90;;;;;;4964588;28;38237;-78
2022/11/08 00:34:09;;;;;;;16.88;2.65;;;13.10;99.90;;;;;;4952172;28;37800;-78
2022/11/08 00:36:35;;;;;;;12.35;2.33;;;13.10;99.90;;;;;;4967201;28;38724;-78
2022/11/08 00:39:01;;;;;;;14.38;2.53;;;13.10;99.90;;;;;;4948250;28;37248;-78
2022/11/08 00:41:27;;;;;;;15.60;3.10;;;13.10;99.90;;;;;;4966601;28;36750;-79
2022/11/08 00:43:53;;;;;;;13.55;2.30;;;13.10;99.90;;;;;;4968163;28;37376;-78
2022/11/08 00:46:19;;;;;;;11.40;2.50;;;13.10;99.90;;;;;;4967084;28;39327;-78
2022/11/08 00:48:45;;;;;;;8.60;2.20;;;13.00;99.90;;;;;;4958076;28;37460;-78
2022/11/08 00:51:12;;;;;;;8.43;2.33;;;13.00;99.90;;;;;;4971309;28;38438;-78
2022/11/08 00:53:38;;;;;;;14.38;2.88;;;13.00;99.90;;;;;;4963385;28;37290;-78
2022/11/08 00:56:07;;;;;;;6.35;1.88;;;13.10;99.90;;;;;;4965920;28;39167;-77
2022/11/08 00:58:33;;;;;;;12.25;2.15;;;13.00;99.90;;;;;;4969468;28;38033;-78
2022/11/08 01:00:59;;;;;;;11.88;2.50;;;13.00;99.90;;;;;;4955957;28;36870;-79
2022/11/08 01:03:26;;;;;;;9.32;2.42;;;13.00;99.90;;;;;;4962767;28;36413;-77
2022/11/08 01:05:54;;;;;;;11.77;2.75;;;13.00;99.90;;;;;;4972276;28;20059;-78
2022/11/08 01:08:23;;;;;;;10.18;2.47;;;13.00;99.90;;;;;;4963496;28;36271;-78
2022/11/08 01:10:51;;;;;;;15.13;2.80;;;13.00;99.90;;;;;;4957429;28;37441;-78
2022/11/08 01:13:17;;;;;;;8.48;2.40;;;13.00;99.90;;;;;;4963145;28;36080;-79
2022/11/08 01:15:44;;;;;;;10.10;2.60;;;13.00;99.90;;;;;;4961395;28;39005;-79
2022/11/08 01:18:13;;;;;;;11.68;2.08;;;13.00;99.90;;;;;;4972837;28;38305;-78
2022/11/08 01:20:43;;;;;;;15.63;2.45;;;13.10;99.90;;;;;;4947892;28;38330;-78
2022/11/08 01:23:10;;;;;;;9.95;2.67;;;13.10;99.90;;;;;;4971038;28;36235;-78
2022/11/08 01:25:38;;;;;;;10.57;2.10;;;13.10;99.90;;;;;;4958352;28;37665;-78
2022/11/08 01:28:05;;;;;;;8.27;2.20;;;13.10;99.90;;;;;;4957477;28;38396;-78
2022/11/08 01:30:34;;;;;;;11.43;1.92;;;13.10;99.90;;;;;;4959628;28;39054;-78
2022/11/08 01:33:00;;;;;;;15.27;2.42;;;13.20;99.90;;;;;;4975972;28;36962;-78
2022/11/08 01:35:26;;;;;;;8.93;2.05;;;13.20;99.90;;;;;;4960442;28;40400;-78
2022/11/08 01:37:53;;;;;;;13.30;2.42;;;13.20;99.90;;;;;;4974629;28;37610;-78
2022/11/08 01:40:19;;;;;;;7.78;2.03;;;13.10;99.90;;;;;;4958716;28;38839;-78
2022/11/08 01:42:45;;;;;;;10.85;2.50;;;13.20;99.90;;;;;;4961616;28;36263;-79
2022/11/08 01:45:11;;;;;;;9.77;2.50;;;13.10;99.90;;;;;;4966274;28;38492;-79
2022/11/08 01:47:37;;;;;;;10.05;2.15;;;13.10;99.90;;;;;;4970190;28;39406;-79
2022/11/08 01:50:09;;;;;;;10.18;2.05;;;13.10;99.90;;;;;;4970179;28;37840;-80
2022/11/08 01:52:55;;;;;;;9.57;2.67;;;13.10;99.90;;;;;;4972705;28;47177;-77
2022/11/08 01:55:26;;;;;;;9.02;2.40;;;13.10;99.90;;;;;;4963290;28;39028;-79
2022/11/08 01:57:52;;;;;;;12.10;2.15;;;13.10;99.90;;;;;;4962208;28;38524;-78
2022/11/08 02:03:13;;;;;;;9.80;2.17;;;13.00;99.90;;;;;;5216562;23;20062;-77
2022/11/08 02:05:39;;;;;;;6.43;2.50;;;13.00;99.90;;;;;;4976537;28;38257;-77
2022/11/08 02:08:32;;;;;;;10.07;2.35;;;13.00;99.90;;;;;;4980185;28;38236;-77
2022/11/08 02:10:58;;;;;;;7.55;2.10;;;13.00;99.90;;;;;;4972661;28;37749;-77
2022/11/08 02:13:26;;;;;;;9.23;3.03;;;12.90;99.90;;;;;;4980912;28;35853;-78
2022/11/08 02:15:52;;;;;;;9.07;2.08;;;12.80;99.90;;;;;;4995158;28;39297;-77
2022/11/08 02:18:21;;;;;;;7.13;2.05;;;12.70;99.90;;;;;;4989802;28;38237;-77
2022/11/08 02:21:16;;;;;;;15.15;2.75;;;12.60;99.90;;;;;;4996794;28;38018;-77
2022/11/08 02:23:54;;;;;;;9.20;2.30;;;12.50;99.90;;;;;;4983557;28;46942;-77
2022/11/08 02:26:23;;;;;;;12.07;2.80;;;12.50;99.90;;;;;;4971627;28;37509;-77
2022/11/08 02:28:50;;;;;;;9.95;3.17;;;12.40;99.90;;;;;;4978134;28;38748;-77
2022/11/08 02:31:18;;;;;;;10.40;2.67;;;12.30;99.90;;;;;;4977419;28;38007;-77
2022/11/08 02:33:45;;;;;;;14.57;2.60;;;12.20;99.90;;;;;;4973233;28;35678;-77
2022/11/08 02:36:15;;;;;;;9.98;2.60;;;12.20;99.90;;;;;;4992349;28;37809;-77
2022/11/08 02:38:45;;;;;;;10.00;3.85;;;12.20;99.90;;;;;;4996674;28;37169;-78
2022/11/08 02:41:11;;;;;;;15.20;2.67;;;12.10;99.90;;;;;;4978769;28;36615;-77
2022/11/08 02:43:37;;;;;;;11.05;3.20;;;12.00;99.90;;;;;;5013010;28;36046;-78
2022/11/08 02:46:04;;;;;;;10.27;2.80;;;12.00;99.90;;;;;;4993560;28;40040;-77
2022/11/08 02:48:30;;;;;;;10.45;3.03;;;11.90;99.90;;;;;;4993654;28;48086;-77
2022/11/08 02:50:57;;;;;;;13.15;3.03;;;11.90;99.90;;;;;;4996437;28;36816;-77
2022/11/08 02:53:23;;;;;;;8.80;2.67;;;11.80;99.90;;;;;;4993206;28;36065;-77
2022/11/08 02:55:49;;;;;;;13.02;3.42;;;11.80;99.90;;;;;;4995192;28;40046;-77
2022/11/08 02:58:15;;;;;;;11.23;3.10;;;11.80;99.90;;;;;;4974031;28;37175;-77
2022/11/08 03:00:41;;;;;;;11.45;3.08;;;11.70;99.90;;;;;;4971616;28;36929;-76
2022/11/08 03:03:08;;;;;;;12.20;3.05;;;11.80;99.90;;;;;;4976581;28;37871;-77
2022/11/08 03:05:35;;;;;;;10.23;2.80;;;11.80;99.90;;;;;;4990577;28;37834;-77
2022/11/08 03:08:01;;;;;;;12.70;2.92;;;11.80;99.90;;;;;;4971678;28;36982;-77
2022/11/08 03:10:27;;;;;;;10.75;2.72;;;11.80;99.90;;;;;;4975519;28;38833;-77
2022/11/08 03:13:02;;;;;;;10.60;2.97;;;11.80;99.90;;;;;;4974069;28;35779;-78
2022/11/08 03:15:28;;;;;;;12.93;3.05;;;11.70;99.90;;;;;;4983246;28;48509;-77
2022/11/08 03:17:55;;;;;;;9.45;2.92;;;11.60;99.90;;;;;;4971971;28;37068;-77
2022/11/08 03:20:21;;;;;;;12.18;3.08;;;11.50;99.90;;;;;;4977711;28;38449;-77
2022/11/08 03:22:48;;;;;;;8.18;2.80;;;11.50;99.90;;;;;;4977972;28;38381;-76
2022/11/08 03:25:14;;;;;;;9.07;2.73;;;11.50;99.90;;;;;;4973679;28;39014;-77
2022/11/08 03:27:40;;;;;;;5.80;2.38;;;11.50;99.90;;;;;;4995223;28;38988;-77
2022/11/08 03:30:06;;;;;;;12.80;2.83;;;11.50;99.90;;;;;;4992121;28;37859;-77
2022/11/08 03:32:32;;;;;;;11.02;2.78;;;11.60;99.90;;;;;;4997263;28;35716;-77
2022/11/08 03:34:59;;;;;;;10.02;2.50;;;11.50;99.90;;;;;;4992664;28;38205;-77
2022/11/08 03:37:25;;;;;;;14.20;3.13;;;11.50;99.90;;;;;;4975413;28;37568;-76
2022/11/08 03:39:51;;;;;;;10.20;2.92;;;11.60;99.90;;;;;;4984776;28;37077;-76
2022/11/08 03:42:17;;;;;;;8.45;2.25;;;11.60;99.90;;;;;;4985500;28;37335;-78
2022/11/08 03:44:44;;;;;;;16.50;2.70;;;11.60;99.90;;;;;;4989213;28;37965;-77
2022/11/08 03:47:10;;;;;;;10.85;2.67;;;11.50;99.90;;;;;;4989289;28;38696;-78
2022/11/08 03:49:36;;;;;;;8.23;3.13;;;11.60;99.90;;;;;;4988122;28;38616;-77
2022/11/08 03:52:02;;;;;;;10.70;2.85;;;11.60;99.90;;;;;;4989788;28;37028;-77
2022/11/08 03:54:28;;;;;;;8.35;2.67;;;11.60;99.90;;;;;;4984564;28;49382;-77
2022/11/08 03:56:54;;;;;;;5.57;2.22;;;11.70;99.90;;;;;;4986033;28;39212;-77
2022/11/08 03:59:20;;;;;;;8.23;2.72;;;11.70;99.90;;;;;;5002605;28;36779;-78
2022/11/08 04:01:47;;;;;;;6.65;2.17;;;11.60;99.90;;;;;;4987613;28;37596;-77
2022/11/08 04:04:13;;;;;;;10.10;3.08;;;11.60;99.90;;;;;;4964409;28;37840;-77
2022/11/08 04:06:40;;;;;;;13.80;3.50;;;11.60;99.90;;;;;;4974392;28;39053;-77
2022/11/08 04:09:06;;;;;;;6.88;2.53;;;11.60;99.90;;;;;;4967958;28;37199;-77
2022/11/08 04:17:01;;;;;;;12.48;2.85;;;11.60;99.90;;;;;;4972349;28;39288;-78
2022/11/08 04:22:12;;;;;;;6.93;2.33;;;11.60;99.90;;;;;;4980356;28;38763;-77
2022/11/08 04:24:38;;;;;;;10.95;2.50;;;11.60;99.90;;;;;;4972046;28;37733;-77
2022/11/08 04:27:05;;;;;;;8.25;2.50;;;11.70;99.90;;;;;;4972649;28;39836;-77
2022/11/08 04:29:31;;;;;;;7.28;2.22;;;11.70;99.90;;;;;;4983456;28;38241;-78
2022/11/08 04:31:57;;;;;;;9.40;2.20;;;11.70;99.90;;;;;;4975928;28;35951;-77
2022/11/08 04:34:23;;;;;;;8.40;2.30;;;11.80;99.90;;;;;;4991093;28;38503;-77
2022/11/08 04:36:49;;;;;;;9.63;2.58;;;11.80;99.90;;;;;;4989041;28;37368;-77
2022/11/08 04:39:15;;;;;;;5.85;2.45;;;11.80;99.90;;;;;;4988816;28;39055;-77
2022/11/08 04:41:41;;;;;;;8.20;2.10;;;11.80;99.90;;;;;;4987217;28;37248;-77
2022/11/08 04:44:08;;;;;;;7.40;2.63;;;11.80;99.90;;;;;;4992118;28;38881;-77
2022/11/08 04:46:34;;;;;;;7.47;2.40;;;11.80;99.90;;;;;;4987606;28;37269;-77
2022/11/08 04:49:00;;;;;;;7.43;2.10;;;11.80;99.90;;;;;;4989584;28;36948;-77
2022/11/08 04:51:28;;;;;;;6.45;2.15;;;11.90;99.90;;;;;;4987650;28;37378;-77
2022/11/08 04:53:56;;;;;;;7.00;1.98;;;11.80;99.90;;;;;;4995637;28;38731;-78
2022/11/08 04:56:22;;;;;;;9.82;2.60;;;11.80;99.90;;;;;;4988834;28;37507;-77
2022/11/08 04:58:51;;;;;;;5.53;1.92;;;11.70;99.90;;;;;;4992534;28;39064;-77
2022/11/08 05:01:19;;;;;;;8.52;2.10;;;11.80;99.90;;;;;;4986901;28;36667;-77
2022/11/08 05:03:47;;;;;;;6.05;2.60;;;11.80;99.90;;;;;;4987334;28;38832;-77
2022/11/08 05:06:25;;;;;;;7.28;2.25;;;11.80;99.90;;;;;;4992362;28;37218;-77
2022/11/08 05:08:54;;;;;;;8.20;2.17;;;11.80;99.90;;;;;;4990491;28;37552;-78
2022/11/08 05:11:21;;;;;;;5.30;2.03;;;11.80;99.90;;;;;;4984655;28;35741;-77
2022/11/08 05:13:49;;;;;;;4.30;1.80;;;11.80;99.90;;;;;;4979251;28;37415;-77
2022/11/08 05:16:18;;;;;;;5.47;1.58;;;11.80;99.90;;;;;;4990698;28;37188;-78
2022/11/08 05:18:44;;;;;;;5.25;1.83;;;11.80;99.90;;;;;;4994336;28;36733;-77
2022/11/08 05:23:59;;;;;;;5.60;1.95;;;11.80;99.90;;;;;;4993037;28;39895;-78
2022/11/08 05:26:25;;;;;;;6.57;2.30;;;11.80;99.90;;;;;;4991174;28;38257;-77
2022/11/08 05:28:51;;;;;;;6.32;1.75;;;11.80;99.90;;;;;;4987073;28;36796;-77
2022/11/08 05:31:18;;;;;;;6.82;1.88;;;11.70;99.90;;;;;;4987983;28;37180;-76
2022/11/08 05:33:44;;;;;;;5.60;1.75;;;11.80;99.90;;;;;;4987052;28;37534;-77
2022/11/08 05:36:13;;;;;;;7.30;2.35;;;11.70;99.90;;;;;;4990433;28;38561;-77
2022/11/08 05:38:40;;;;;;;6.68;2.88;;;11.80;99.90;;;;;;4989858;28;38698;-76
2022/11/08 05:41:10;;;;;;;4.72;1.60;;;11.80;99.90;;;;;;4967846;28;36926;-76
2022/11/08 05:43:36;;;;;;;5.43;2.38;;;11.80;99.90;;;;;;4996703;28;38479;-77
2022/11/08 05:46:02;;;;;;;8.52;2.03;;;11.80;99.90;;;;;;4973713;28;38709;-76
2022/11/08 05:48:29;;;;;;;6.95;1.63;;;11.80;99.90;;;;;;4972277;28;36829;-77
2022/11/08 05:50:55;;;;;;;3.28;1.63;;;11.80;99.90;;;;;;4984030;28;35762;-77
2022/11/08 05:53:21;;;;;;;9.45;2.17;;;11.80;99.90;;;;;;4993178;28;38749;-76
2022/11/08 05:55:48;;;;;;;2.92;1.60;;;11.80;99.90;;;;;;4991373;28;39078;-78
2022/11/08 05:58:15;;;;;;;4.32;1.75;;;11.80;99.90;;;;;;4991811;28;37086;-79
2022/11/08 06:00:41;;;;;;;6.10;1.85;;;11.80;99.90;;;;;;4993367;28;38522;-79
2022/11/08 06:03:07;;;;;;;7.03;1.88;;;11.90;99.90;;;;;;4981102;28;38601;-79
2022/11/08 06:05:33;;;;;;;5.50;1.92;;;11.90;99.90;;;;;;4990310;28;39363;-82
2022/11/08 06:07:59;;;;;;;7.00;2.10;;;11.90;99.90;;;;;;4992763;28;37733;-79
2022/11/08 06:10:26;;;;;;;4.60;1.60;;;11.90;99.90;;;;;;5001322;28;36213;-79
2022/11/08 06:12:52;;;;;;;6.63;1.55;;;11.90;99.90;;;;;;4980016;28;37782;-77
2022/11/08 06:15:18;;;;;;;4.20;1.38;;;11.80;99.90;;;;;;4973811;28;38717;-77
2022/11/08 06:17:44;;;;;;;6.20;1.73;;;11.80;99.90;;;;;;4992418;28;37275;-77
2022/11/08 06:20:13;;;;;;;3.20;1.40;;;11.80;99.90;;;;;;4983587;28;35916;-77
2022/11/08 06:22:39;;;;;;;5.82;1.98;;;11.80;99.90;;;;;;4976602;28;39657;-77
2022/11/08 06:25:06;;;;;;;8.70;1.70;;;11.90;99.90;;;;;;4968331;28;37186;-77
2022/11/08 06:27:32;;;;;;;7.47;1.50;;;11.90;99.90;;;;;;4986355;28;37116;-78
2022/11/08 06:29:58;;;;;;;5.68;1.50;;;11.90;99.90;;;;;;4972110;28;35656;-77
2022/11/08 06:32:24;;;;;;;7.55;1.90;;;11.90;99.90;;;;;;4969389;28;38541;-77
2022/11/08 06:34:50;;;;;;;5.32;1.65;;;11.90;99.90;;;;;;4985994;28;39564;-77
2022/11/08 06:37:16;;;;;;;6.78;1.77;;;11.90;99.90;;;;;;5006282;28;36703;-77
2022/11/08 06:39:43;;;;;;;8.20;1.80;;;11.90;99.90;;;;;;4984973;28;37654;-77
2022/11/08 06:42:10;;;;;;;3.70;1.52;;;11.90;99.90;;;;;;4994028;28;39732;-77
2022/11/08 06:44:36;;;;;;;3.60;1.30;;;11.90;99.90;;;;;;4990845;28;38787;-77
2022/11/08 06:47:02;;;;;;;4.32;1.58;;;11.90;99.90;;;;;;4985168;28;37070;-77
2022/11/08 06:49:28;;;;;;;5.22;1.83;;;11.80;99.90;;;;;;4992692;28;35846;-77
2022/11/08 06:51:54;;;;;;;5.22;1.92;;;11.80;99.90;;;;;;4970222;28;40155;-77
2022/11/08 06:54:20;;;;;;;5.45;1.73;;;11.80;99.90;;;;;;4970274;28;37637;-77
2022/11/08 06:56:46;;;;;;;6.43;1.80;;;11.80;99.90;;;;;;4971883;28;38041;-78
2022/11/08 06:59:13;;;;;;;4.78;1.60;;;11.80;99.90;;;;;;4971362;28;37756;-78
2022/11/08 07:01:39;;;;;;;6.30;1.70;;;11.80;99.90;;;;;;4980087;28;37279;-78
2022/11/08 07:04:05;;;;;;;4.82;1.85;;;11.80;99.90;;;;;;4984938;28;40138;-77
2022/11/08 07:06:31;;;;;;;9.43;2.10;;;11.80;99.90;;;;;;4972558;28;37155;-78
2022/11/08 07:09:00;;;;;;;5.00;1.30;;;11.80;99.90;;;;;;4973189;28;38334;-78
2022/11/08 07:11:26;;;;;;;4.88;1.80;;;11.80;99.90;;;;;;4977595;28;38427;-76
2022/11/08 07:13:52;;;;;;;6.32;2.03;;;11.90;99.90;;;;;;4977078;28;39456;-78
2022/11/08 07:16:18;;;;;;;6.57;2.25;;;11.90;99.90;;;;;;4984628;28;39518;-78
2022/11/08 07:18:44;;;;;;;6.10;1.90;;;11.90;99.90;;;;;;4990766;28;36274;-77
2022/11/08 07:21:11;;;;;;;4.00;1.80;;;11.90;99.90;;;;;;4971059;28;37895;-78
2022/11/08 07:23:37;;;;;;;4.60;1.90;;;11.90;99.90;;;;;;4973521;28;38381;-78
2022/11/08 07:26:04;;;;;;;6.03;2.08;;;11.90;99.90;;;;;;4973664;28;39440;-79
2022/11/08 07:28:31;;;;;;;5.22;2.45;;;12.00;99.90;;;;;;4965511;28;46763;-78
2022/11/08 07:31:02;;;;;;;6.35;1.73;;;12.00;99.90;;;;;;4992400;28;39627;-78
2022/11/08 07:33:28;;;;;;;4.10;2.03;;;12.10;99.90;;;;;;4992424;28;38967;-77
2022/11/08 07:35:55;;;;;;;5.45;2.40;;;12.20;99.90;;;;;;4989714;28;38092;-78
2022/11/08 07:38:21;;;;;;;3.50;1.60;;;12.20;99.90;;;;;;4994233;28;37282;-77
2022/11/08 07:40:47;;;;;;;5.13;1.65;;;12.30;99.90;;;;;;4986813;28;37622;-78
2022/11/08 07:43:14;;;;;;;6.95;1.90;;;12.30;99.90;;;;;;5008639;28;38166;-77
2022/11/08 07:45:41;;;;;;;6.30;2.10;;;12.30;99.90;;;;;;4990818;28;39707;-77
2022/11/08 07:48:09;;;;;;;4.65;1.98;;;12.40;99.90;;;;;;4987762;28;35897;-77
2022/11/08 07:50:35;;;;;;;10.93;2.22;;;12.40;99.90;;;;;;5005698;28;38847;-78
2022/11/08 07:53:01;;;;;;;3.97;1.65;;;12.50;99.90;;;;;;4991449;28;38346;-78
2022/11/08 07:55:27;;;;;;;4.30;1.75;;;12.50;99.90;;;;;;4973259;28;36229;-78
2022/11/08 07:58:00;;;;;;;8.57;1.95;;;12.50;99.90;;;;;;4967055;28;37347;-77
2022/11/08 08:00:28;;;;;;;6.55;2.00;;;12.60;99.90;;;;;;4973143;28;39348;-78
2022/11/08 08:02:58;;;;;;;6.72;2.05;;;12.60;99.90;;;;;;4986086;28;38357;-78
2022/11/08 08:05:26;;;;;;;3.47;1.63;;;12.60;99.90;;;;;;4971585;28;37958;-77
2022/11/08 08:07:56;;;;;;;5.07;2.30;;;12.70;99.90;;;;;;4980307;28;36922;-78
2022/11/08 08:10:23;;;;;;;4.25;1.80;;;12.70;99.90;;;;;;4973716;28;38992;-77
2022/11/08 08:12:49;;;;;;;2.97;1.60;;;12.70;99.90;;;;;;4971063;28;37356;-77
2022/11/08 08:15:15;;;;;;;6.63;2.35;;;12.80;99.90;;;;;;4987384;28;38084;-78
2022/11/08 08:17:41;;;;;;;4.38;1.70;;;12.90;99.90;;;;;;4990429;28;36393;-78
2022/11/08 08:20:08;;;;;;;3.72;1.60;;;12.90;99.90;;;;;;4993015;28;38905;-78
2022/11/08 08:22:34;;;;;;;5.03;1.55;;;12.90;99.90;;;;;;4991910;28;38160;-77
2022/11/08 08:25:00;;;;;;;3.58;1.50;;;13.00;99.90;;;;;;5007186;28;37019;-78
2022/11/08 08:27:26;;;;;;;3.33;1.38;;;13.10;99.90;;;;;;4989474;28;38172;-78
2022/11/08 08:29:52;;;;;;;4.93;1.38;;;13.20;99.90;;;;;;4989648;28;38784;-78
2022/11/08 08:32:18;;;;;;;4.30;1.58;;;13.30;99.90;;;;;;4988232;28;37020;-77
2022/11/08 08:34:44;;;;;;;4.07;1.42;;;13.40;99.90;;;;;;4986931;28;38644;-78
2022/11/08 08:37:14;;;;;;;8.77;1.73;;;13.40;99.90;;;;;;4989108;28;35806;-79
2022/11/08 08:39:40;;;;;;;5.35;1.75;;;13.50;99.90;;;;;;4988615;28;40028;-78
2022/11/08 08:42:06;;;;;;;9.80;1.70;;;13.50;99.90;;;;;;4988687;28;38836;-78
2022/11/08 08:44:32;;;;;;;5.00;1.70;;;13.50;99.90;;;;;;4991666;28;39684;-78
2022/11/08 08:46:58;;;;;;;6.38;1.67;;;13.50;99.90;;;;;;4991048;28;36282;-78
2022/11/08 08:49:24;;;;;;;4.53;1.55;;;13.50;99.90;;;;;;5005854;28;37290;-78
2022/11/08 08:51:50;;;;;;;4.30;1.65;;;13.50;99.90;;;;;;4985664;28;37517;-80
2022/11/08 08:54:17;;;;;;;10.05;1.95;;;13.40;99.90;;;;;;4987641;28;36711;-80
2022/11/08 08:56:43;;;;;;;7.20;1.80;;;13.40;99.90;;;;;;4995033;28;36341;-78
2022/11/08 08:59:09;;;;;;;3.83;1.60;;;13.40;99.90;;;;;;4979378;28;37614;-80
2022/11/08 09:01:35;;;;;;;2.85;1.63;;;13.50;99.90;;;;;;5016477;28;38271;-80
2022/11/08 09:04:02;;;;;;;3.90;1.45;;;13.60;99.90;;;;;;5009648;28;38600;-80
2022/11/08 09:06:28;;;;;;;5.47;2.15;;;13.60;99.90;;;;;;5001907;28;47294;-81
2022/11/08 09:08:54;;;;;;;4.50;1.60;;;13.70;99.90;;;;;;4990750;28;38801;-80
2022/11/08 09:11:20;;;;;;;7.45;2.05;;;13.80;99.90;;;;;;5001542;28;37397;-81
2022/11/08 09:13:47;;;;;;;8.45;1.80;;;13.90;99.90;;;;;;4991239;28;38142;-80
2022/11/08 09:16:13;;;;;;;6.15;1.50;;;13.90;99.90;;;;;;4996066;28;38663;-81
2022/11/08 09:18:42;;;;;;;3.65;1.60;;;13.90;99.90;;;;;;5006394;28;39157;-80
2022/11/08 09:21:08;;;;;;;5.25;1.63;;;13.90;99.90;;;;;;4975815;28;37844;-79
2022/11/08 09:23:37;;;;;;;6.38;1.80;;;13.90;99.90;;;;;;4980956;28;36541;-80
2022/11/08 09:26:05;;;;;;;5.07;1.60;;;13.90;99.90;;;;;;5004227;28;36143;-79
2022/11/08 09:28:35;;;;;;;5.57;1.80;;;13.90;99.90;;;;;;4994264;28;47464;-80
2022/11/08 09:31:03;;;;;;;2.92;1.60;;;13.90;99.90;;;;;;4977385;28;39923;-78
2022/11/08 09:33:29;;;;;;;4.53;1.80;;;13.90;99.90;;;;;;4995406;28;37938;-79
2022/11/08 09:35:58;;;;;;;3.92;1.70;;;13.90;99.90;;;;;;4982481;28;36514;-79
2022/11/08 09:38:24;;;;;;;7.38;1.75;;;13.90;99.90;;;;;;4980001;28;37413;-80
2022/11/08 09:41:11;;;;;;;3.17;1.70;;;13.90;99.90;;;;;;4987139;28;37308;-80
2022/11/08 09:43:56;;;;;;;4.55;1.60;;;13.90;99.90;;;;;;4998379;28;49097;-79
2022/11/08 09:46:49;;;;;;;6.88;1.45;;;13.90;99.90;;;;;;4995911;28;37677;-80
2022/11/08 09:49:35;;;;;;;;;;;14.00;99.90;;;;;;4998277;28;38563;-80
2022/11/08 09:52:03;;;;;;;4.25;1.42;;;14.00;99.90;;;;;;4993462;28;37601;-80
2022/11/08 09:54:41;;;;;;;2.15;1.27;;;14.00;99.90;;;;;;5000720;28;47314;-79
2022/11/08 09:57:21;;;;;;;9.10;1.55;;;14.00;99.90;;;;;;5001620;28;35687;-80
2022/11/08 09:59:53;;;;;;;4.55;1.23;;;14.10;99.90;;;;;;4994595;28;38700;-80
2022/11/08 10:02:22;;;;;;;2.63;1.40;;;14.10;99.90;;;;;;5004569;28;38715;-80
2022/11/08 10:04:56;;;;;;;4.32;1.45;;;14.10;99.90;;;;;;4984401;28;39531;-80
2022/11/08 10:07:33;;;;;;;6.07;1.30;;;14.20;99.90;;;;;;4974837;28;37519;-81
2022/11/08 10:10:29;;;;;;;2.55;1.20;;;14.20;99.90;;;;;;4984852;28;37656;-80
2022/11/08 10:13:16;;;;;;;6.82;1.42;;;14.20;99.90;;;;;;4981727;28;46967;-80
2022/11/08 10:16:00;;;;;;;3.97;1.60;;;14.20;99.90;;;;;;5006003;28;48352;-81
2022/11/08 10:18:49;;;;;;;7.07;1.38;;;14.10;99.90;;;;;;5005530;28;36020;-80
2022/11/08 10:21:45;;;;;;;4.53;1.88;;;14.20;99.90;;;;;;5009428;28;39144;-81
2022/11/08 10:24:22;;;;;;;4.75;1.60;;;14.20;99.90;;;;;;4994246;28;38370;-79
2022/11/08 10:26:51;;;;;;;7.03;1.70;;;14.20;99.90;;;;;;5009322;28;38549;-81
2022/11/08 10:29:26;;;;;;;5.28;1.83;;;14.20;99.90;;;;;;5007599;28;37226;-80
2022/11/08 10:32:00;;;;;;;2.42;1.38;;;14.20;99.90;;;;;;4980676;28;38686;-80
2022/11/08 10:34:33;;;;;;;4.45;1.60;;;14.20;99.90;;;;;;4991243;28;36737;-80
2022/11/08 10:37:05;;;;;;;4.70;1.75;;;14.20;99.90;;;;;;5001013;28;37879;-79
2022/11/08 10:39:41;;;;;;;3.15;1.58;;;14.30;99.90;;;;;;4983663;28;47512;-80
2022/11/08 10:42:14;;;;;;;5.40;1.63;;;14.30;99.90;;;;;;4998269;28;39279;-79
2022/11/08 10:44:41;;;;;;;5.32;1.60;;;14.40;99.90;;;;;;4977747;28;37056;-80
2022/11/08 10:47:24;;;;;;;3.35;1.13;;;14.40;99.90;;;;;;4993063;28;39072;-80
2022/11/08 10:49:53;;;;;;;4.63;1.60;;;14.40;99.90;;;;;;4983519;28;36130;-80
2022/11/08 10:52:38;;;;;;;8.57;1.20;;;14.50;99.90;;;;;;4995608;28;38130;-78
2022/11/08 10:55:21;;;;;;;1.88;1.25;;;14.50;99.90;;;;;;5004728;28;38858;-80
2022/11/08 10:57:47;;;;;;;2.42;1.40;;;14.60;99.90;;;;;;4981402;28;37592;-81
2022/11/08 11:00:26;;;;;;;3.47;1.73;;;14.60;99.90;;;;;;4992686;28;38092;-80
2022/11/08 11:03:21;;;;;;;4.35;1.75;;;14.60;99.90;;;;;;4999781;28;38859;-80
2022/11/08 11:06:23;;;;;;;3.95;1.50;;;14.60;99.90;;;;;;4999103;28;47598;-81
2022/11/08 11:09:19;;;;;;;5.17;1.53;;;14.50;99.90;;;;;;4998750;28;48566;-80
2022/11/08 11:11:45;;;;;;;3.72;1.70;;;14.70;99.90;;;;;;5002343;28;48892;-82
2022/11/08 11:14:20;;;;;;;4.85;1.60;;;14.70;99.90;;;;;;4993812;28;38157;-83
2022/11/08 11:17:05;;;;;;;6.03;2.08;;;14.60;99.90;;;;;;5010625;28;37149;-79
2022/11/08 11:19:32;;;;;;;3.90;1.60;;;14.70;99.90;;;;;;4982687;28;47343;-79
2022/11/08 11:22:05;;;;;;;3.65;1.33;;;14.80;99.90;;;;;;4989388;28;37335;-79
2022/11/08 11:24:34;;;;;;;6.55;1.70;;;14.90;99.90;;;;;;4986454;28;47544;-78
2022/11/08 11:27:06;;;;;;;5.78;1.60;;;15.00;99.90;;;;;;4994918;28;39276;-79
2022/11/08 11:29:34;;;;;;;4.00;1.40;;;15.00;99.90;;;;;;4989934;28;49262;-79
2022/11/08 11:32:20;;;;;;;3.30;1.63;;;15.00;99.90;;;;;;4987801;28;37522;-78
2022/11/08 11:34:56;;;;;;;5.93;2.35;;;15.10;99.90;;;;;;4972253;28;47022;-80
2022/11/08 11:37:33;;;;;;;3.65;1.45;;;15.10;99.90;;;;;;4971479;28;37919;-83
2022/11/08 11:40:16;;;;;;;5.43;1.60;;;15.20;99.90;;;;;;5004581;28;37122;-82
2022/11/08 11:42:58;;;;;;;5.90;2.15;;;15.30;99.90;;;;;;4996008;28;48519;-80
2022/11/08 11:45:49;;;;;;;4.30;1.50;;;15.30;99.90;;;;;;5002337;28;39755;-82
2022/11/08 11:48:25;;;;;;;4.50;1.58;;;15.40;99.90;;;;;;5017786;28;37183;-82
2022/11/08 11:50:52;;;;;;;5.88;1.52;;;15.30;99.90;;;;;;5018735;28;36770;-83
2022/11/08 11:53:40;;;;;;;6.18;1.70;;;15.30;99.90;;;;;;4998131;28;37973;-82
2022/11/08 11:56:42;;;;;;;5.03;1.70;;;15.40;99.90;;;;;;5009008;28;39887;-82
2022/11/08 12:02:32;;;;;;;2.50;1.08;;;15.50;99.90;;;;;;4968414;28;20047;-78
2022/11/08 12:05:13;;;;;;;4.40;1.48;;;15.50;99.90;;;;;;4972198;28;36503;-78
2022/11/08 12:07:49;;;;;;;3.10;1.40;;;15.50;99.90;;;;;;4971807;28;47329;-77
2022/11/08 12:10:24;;;;;;;4.45;1.58;;;15.40;99.90;;;;;;4947526;28;37585;-77
2022/11/08 12:13:00;;;;;;;4.10;1.58;;;15.30;99.90;;;;;;4969704;28;39035;-77
2022/11/08 12:15:41;;;;;;;6.47;1.85;;;15.20;99.90;;;;;;4967860;28;37479;-77
2022/11/08 12:18:34;;;;;;;5.55;1.70;;;15.20;99.90;;;;;;4949915;28;38752;-77
2022/11/08 12:21:09;;;;;;;5.43;2.35;;;15.30;99.90;;;;;;4955640;28;37303;-79
2022/11/08 12:23:55;;;;;;;8.52;2.00;;;15.50;99.90;;;;;;4970707;28;48578;-77
2022/11/08 12:26:29;;;;;;;4.43;1.83;;;15.50;99.90;;;;;;4971428;28;37206;-77
2022/11/08 12:29:02;;;;;;;5.63;1.50;;;15.50;99.90;;;;;;4968399;28;38476;-78
2022/11/08 12:31:34;;;;;;;6.28;1.70;;;15.60;99.90;;;;;;4963969;28;37344;-78
2022/11/08 12:34:05;;;;;;;8.55;1.50;;;15.60;99.90;;;;;;4943144;28;37104;-77
2022/11/08 12:36:35;;;;;;;6.40;1.60;;;15.70;99.90;;;;;;4955160;28;48898;-78
2022/11/08 12:39:11;;;;;;;5.78;1.73;;;15.60;99.90;;;;;;4965394;28;38017;-77
2022/11/08 12:41:52;;;;;;;4.03;1.60;;;15.50;99.90;;;;;;4956043;28;48490;-79
2022/11/08 12:44:37;;;;;;;5.18;1.90;;;15.50;99.90;;;;;;4950916;28;38566;-78
2022/11/08 12:47:38;;;;;;;4.38;1.55;;;15.40;99.90;;;;;;4964242;28;36014;-79
2022/11/08 12:50:44;;;;;;;5.72;1.83;;;15.40;99.90;;;;;;4954110;28;39688;-79
2022/11/08 12:53:33;;;;;;;6.13;1.63;;;15.50;99.90;;;;;;4964732;28;38320;-80
2022/11/08 12:56:05;;;;;;;4.90;1.77;;;15.50;99.90;;;;;;4952921;28;36892;-79
2022/11/08 12:58:35;;;;;;;;;;;15.50;99.90;;;;;;4956265;28;48890;-80
2022/11/08 13:01:05;;;;;;;5.63;1.85;;;15.50;99.90;;;;;;4955524;28;37835;-80
2022/11/08 13:03:48;;;;;;;4.35;1.80;;;15.50;99.90;;;;;;4949589;28;48775;-80
2022/11/08 13:06:23;;;;;;;;;;;15.50;99.90;;;;;;4952661;28;37874;-81
2022/11/08 13:09:06;;;;;;;5.85;1.30;;;15.50;99.90;;;;;;4953647;28;37515;-80
2022/11/08 13:11:56;;;;;;;3.38;1.48;;;15.40;99.90;;;;;;4962419;28;48264;-80
2022/11/08 13:14:26;;;;;;;7.85;1.83;;;15.40;99.90;;;;;;4965741;28;38279;-80
2022/11/08 13:17:12;;;;;;;4.13;1.58;;;15.40;99.90;;;;;;4956387;28;38908;-80
2022/11/08 13:19:50;;;;;;;5.57;1.60;;;15.40;99.90;;;;;;4948085;28;47272;-80
2022/11/08 13:22:29;;;;;;;6.53;1.85;;;15.40;99.90;;;;;;4969568;28;39276;-80
2022/11/08 13:25:01;;;;;;;14.65;3.28;;;15.30;99.90;;;;;;4960357;28;37519;-79
2022/11/08 13:27:38;;;;;;;4.72;1.85;;;15.30;99.90;;;;;;4964278;28;38322;-79